createdAt,value
2019-05-17T00:01:39.108Z,216.25
2019-05-17T00:10:00.678Z,211.28
2019-05-17T00:18:22.276Z,220.40
2019-05-17T00:26:43.685Z,209.90
2019-05-17T00:35:07.200Z,206.07
2019-05-17T00:43:26.648Z,212.75
2019-05-17T00:51:48.243Z,210.48
2019-05-17T01:00:09.525Z,209.15
2019-05-17T01:08:31.357Z,208.43
2019-05-17T01:16:52.874Z,210.60
2019-05-17T01:25:14.314Z,204.97
2019-05-17T01:33:36.692Z,206.30
2019-05-17T01:41:57.398Z,204.03
2019-05-17T01:50:18.776Z,204.90
2019-05-17T01:58:42.229Z,201.32
2019-05-17T02:07:03.798Z,204.00
2019-05-17T02:15:26.723Z,214.95
2019-05-17T02:23:47.077Z,202.53
2019-05-17T02:32:08.415Z,209.30
2019-05-17T02:40:32.999Z,206.45
2019-05-17T02:48:53.752Z,210.85
2019-05-17T02:57:14.100Z,207.67
2019-05-17T03:05:34.255Z,207.22
2019-05-17T03:13:55.616Z,209.32
2019-05-17T03:22:17.276Z,211.50
2019-05-17T03:30:38.802Z,209.22
2019-05-17T03:39:03.027Z,208.38
2019-05-17T03:47:22.653Z,220.57
2019-05-17T03:55:43.427Z,204.65
2019-05-17T04:04:05.086Z,209.80
2019-05-17T04:12:26.262Z,214.85
2019-05-17T04:20:47.374Z,213.70
2019-05-17T04:29:08.637Z,208.93
2019-05-17T04:37:33.339Z,210.80
2019-05-17T04:45:53.516Z,215.87
2019-05-17T04:54:15.202Z,215.32
2019-05-17T05:02:36.747Z,219.07
2019-05-17T05:10:58.131Z,220.30
2019-05-17T05:19:22.203Z,205.95
2019-05-17T05:27:43.196Z,229.43
2019-05-17T05:36:04.788Z,217.82
2019-05-17T05:44:26.321Z,205.20
2019-05-17T05:52:47.781Z,218.37
2019-05-17T06:01:09.491Z,209.32
2019-05-17T06:09:31.773Z,219.65
2019-05-17T06:17:53.571Z,205.87
2019-05-17T06:26:13.715Z,208.55
2019-05-17T06:34:35.199Z,215.18
2019-05-17T06:42:56.666Z,215.47
2019-05-17T06:51:18.015Z,204.63
2019-05-17T06:59:39.589Z,206.25
2019-05-17T07:08:01.052Z,201.77
2019-05-17T07:16:22.552Z,205.85
2019-05-17T07:24:44.353Z,205.60
2019-05-17T07:33:05.875Z,222.15
2019-05-17T07:41:29.383Z,209.10
2019-05-17T07:49:49.428Z,205.32
2019-05-17T07:58:10.364Z,209.12
2019-05-17T08:06:31.686Z,204.57
2019-05-17T08:14:53.122Z,207.25
2019-05-17T08:23:15.123Z,204.80
2019-05-17T08:31:36.075Z,203.00
2019-05-17T08:39:59.967Z,208.00
2019-05-17T08:48:20.566Z,209.83
2019-05-17T08:56:40.734Z,203.25
2019-05-17T09:05:03.030Z,200.18
2019-05-17T09:13:24.236Z,216.68
2019-05-17T09:21:45.668Z,209.95
2019-05-17T09:30:09.322Z,211.75
2019-05-17T09:38:29.495Z,210.97
2019-05-17T09:46:50.345Z,208.35
2019-05-17T09:55:11.286Z,208.20
2019-05-17T10:03:32.714Z,210.53
2019-05-17T10:11:54.038Z,215.40
2019-05-17T10:20:15.502Z,219.60
2019-05-17T10:28:36.874Z,211.75
2019-05-17T10:36:58.340Z,216.10
2019-05-17T10:45:19.887Z,216.05
2019-05-17T10:53:43.837Z,216.17
2019-05-17T11:02:05.149Z,215.55
2019-05-17T11:10:26.674Z,211.95
2019-05-17T11:18:48.371Z,214.20
2019-05-17T11:27:09.848Z,217.47
2019-05-17T11:35:31.596Z,212.30
2019-05-17T11:43:52.820Z,213.80
2019-05-17T11:52:16.247Z,211.57
2019-05-17T12:00:37.710Z,209.55
2019-05-17T12:08:59.125Z,215.00
2019-05-17T12:17:20.919Z,211.47
2019-05-17T12:25:42.381Z,212.65
2019-05-17T12:34:04.063Z,213.00
2019-05-17T12:42:25.310Z,218.50
2019-05-17T12:50:47.416Z,212.65
2019-05-17T12:59:09.429Z,213.25
2019-05-17T13:07:30.919Z,214.38
2019-05-17T13:15:54.441Z,216.60
2019-05-17T13:24:16.342Z,223.13
2019-05-17T13:32:38.682Z,214.10
2019-05-17T13:41:02.571Z,209.43
2019-05-17T13:49:24.039Z,206.38
2019-05-17T13:57:45.834Z,211.28
2019-05-17T14:06:09.545Z,226.92
2019-05-17T14:14:30.962Z,213.47
2019-05-17T14:22:52.911Z,217.85
2019-05-17T14:31:14.364Z,216.90
2019-05-17T14:39:37.735Z,215.85
2019-05-17T14:47:59.346Z,243.82
2019-05-17T14:56:20.784Z,218.40
2019-05-17T15:04:42.412Z,225.22
2019-05-17T15:13:03.919Z,218.40
2019-05-17T15:21:25.450Z,220.65
2019-05-17T15:29:46.796Z,243.10
2019-05-17T15:38:10.854Z,229.23
2019-05-17T15:46:32.452Z,236.00
2019-05-17T15:54:53.690Z,227.93
2019-05-17T16:03:15.286Z,240.55
2019-05-17T16:11:36.903Z,253.12
2019-05-17T16:19:58.688Z,224.88
2019-05-17T16:28:20.151Z,221.25
2019-05-17T16:36:41.541Z,228.83
2019-05-17T16:45:05.173Z,226.88
2019-05-17T16:53:26.623Z,254.47
2019-05-17T17:01:48.091Z,238.12
2019-05-17T17:10:09.619Z,247.12
2019-05-17T17:18:31.412Z,227.72
2019-05-17T17:26:52.836Z,232.50
2019-05-17T17:35:14.312Z,249.65
2019-05-17T17:43:35.668Z,232.47
2019-05-17T17:51:57.145Z,223.85
2019-05-17T18:00:18.442Z,251.60
2019-05-17T18:08:40.147Z,245.88
2019-05-17T18:17:01.789Z,267.87
2019-05-17T18:25:25.432Z,250.20
2019-05-17T18:33:46.939Z,248.18
2019-05-17T18:42:08.406Z,245.60
2019-05-17T18:50:29.694Z,240.80
2019-05-17T18:58:51.628Z,252.25
2019-05-17T19:07:13.223Z,230.03
2019-05-17T19:15:34.567Z,215.07
2019-05-17T19:23:56.310Z,226.15
2019-05-17T19:32:17.570Z,224.58
2019-05-17T19:40:39.850Z,240.57
2019-05-17T19:49:01.244Z,212.45
2019-05-17T19:57:22.789Z,218.82
2019-05-17T20:05:44.369Z,217.82
2019-05-17T20:14:05.726Z,215.87
2019-05-17T20:22:27.108Z,231.97
2019-05-17T20:30:48.752Z,220.25
2019-05-17T20:39:10.366Z,218.12
2019-05-17T20:47:31.903Z,218.05
2019-05-17T20:55:55.334Z,226.37
2019-05-17T21:04:16.806Z,221.65
2019-05-17T21:12:38.480Z,222.93
2019-05-17T21:20:59.946Z,232.77
2019-05-17T21:29:21.458Z,231.85
2019-05-17T21:37:43.000Z,221.82
2019-05-17T21:46:04.902Z,226.58
2019-05-17T21:54:26.419Z,224.65
2019-05-17T22:02:48.007Z,220.27
2019-05-17T22:11:09.524Z,229.72
2019-05-17T22:19:31.041Z,226.22
2019-05-17T22:27:52.913Z,230.72
2019-05-17T22:36:14.638Z,227.53
2019-05-17T22:44:36.135Z,221.62
2019-05-17T22:52:57.515Z,233.17
2019-05-17T23:01:18.817Z,225.97
2019-05-17T23:09:40.510Z,229.45
2019-05-17T23:18:02.156Z,226.32
2019-05-17T23:26:23.399Z,228.00
2019-05-17T23:34:44.908Z,230.18
2019-05-17T23:43:06.318Z,226.02
2019-05-17T23:51:27.691Z,230.07
2019-05-17T23:59:49.192Z,218.63
